Time;durP1;ratioP1;P1;durP2;ratioP2;P2;SDS_P1;SDS_P2;PMS_P1;PMS_P2;Temp;Humidity;BMP_temperature;BMP_pressure;BME280_temperature;BME280_humidity;BME280_pressure;Samples;Min_cycle;Max_cycle;Signal;HPM_P1;HPM_P2
2022/02/28 00:00:24;;;;;;;10.23;4.90;;;;;;;;;;4446308;32;20271;-57
2022/02/28 00:02:50;;;;;;;15.10;7.13;;;;;;;;;;4446050;32;20541;-58
2022/02/28 00:05:16;;;;;;;14.20;6.83;;;;;;;;;;4444641;32;20357;-58
2022/02/28 00:07:41;;;;;;;13.10;6.17;;;;;;;;;;4446149;32;20212;-57
2022/02/28 00:10:08;;;;;;;19.97;8.70;;;;;;;;;;4445855;32;20692;-57
2022/02/28 00:12:34;;;;;;;12.40;7.13;;;;;;;;;;4446118;32;20702;-58
2022/02/28 00:15:00;;;;;;;7.10;4.60;;;;;;;;;;4449477;32;20248;-58
2022/02/28 00:17:26;;;;;;;7.63;4.90;;;;;;;;;;4449115;32;20299;-58
2022/02/28 00:19:51;;;;;;;6.20;4.13;;;;;;;;;;4442179;32;20245;-57
2022/02/28 00:22:17;;;;;;;8.40;4.33;;;;;;;;;;4447663;32;20287;-59
2022/02/28 00:24:42;;;;;;;8.63;4.67;;;;;;;;;;4441428;32;20241;-57
2022/02/28 00:27:08;;;;;;;7.00;4.27;;;;;;;;;;4434600;32;20394;-57
2022/02/28 00:29:33;;;;;;;8.60;5.03;;;;;;;;;;4434641;32;20310;-57
2022/02/28 00:31:59;;;;;;;9.70;5.27;;;;;;;;;;4447288;32;20586;-58
2022/02/28 00:34:24;;;;;;;6.70;4.50;;;;;;;;;;4447059;32;20414;-57
2022/02/28 00:36:50;;;;;;;5.90;4.20;;;;;;;;;;4447038;32;20697;-57
2022/02/28 00:39:16;;;;;;;10.00;5.23;;;;;;;;;;4447297;32;20403;-57
2022/02/28 00:41:42;;;;;;;9.07;4.87;;;;;;;;;;4448434;32;20704;-57
2022/02/28 00:44:07;;;;;;;6.90;4.83;;;;;;;;;;4448939;32;20308;-57
2022/02/28 00:46:33;;;;;;;14.43;5.90;;;;;;;;;;4448702;32;20240;-57
2022/02/28 00:48:59;;;;;;;10.43;6.97;;;;;;;;;;4448626;32;20568;-57
2022/02/28 00:51:24;;;;;;;8.67;6.27;;;;;;;;;;4448511;32;20270;-57
2022/02/28 00:53:50;;;;;;;9.90;4.87;;;;;;;;;;4448600;32;20354;-58
2022/02/28 00:56:15;;;;;;;7.23;4.50;;;;;;;;;;4447439;32;20347;-58
2022/02/28 00:58:41;;;;;;;6.47;4.70;;;;;;;;;;4448357;32;20462;-58
2022/02/28 01:01:06;;;;;;;7.87;4.27;;;;;;;;;;4447055;32;20374;-57
2022/02/28 01:03:32;;;;;;;9.60;5.37;;;;;;;;;;4447756;32;20215;-58
2022/02/28 01:05:57;;;;;;;5.30;3.47;;;;;;;;;;4448234;32;20243;-57
2022/02/28 01:08:23;;;;;;;7.63;3.73;;;;;;;;;;4448061;32;20240;-58
2022/02/28 01:10:49;;;;;;;3.70;2.83;;;;;;;;;;4448212;32;20292;-58
2022/02/28 01:13:15;;;;;;;6.17;4.17;;;;;;;;;;4447991;32;20247;-57
2022/02/28 01:15:40;;;;;;;5.43;3.73;;;;;;;;;;4446793;32;20248;-57
2022/02/28 01:18:08;;;;;;;4.47;3.43;;;;;;;;;;4447682;32;20328;-57
2022/02/28 01:20:34;;;;;;;9.03;5.30;;;;;;;;;;4447358;32;20251;-57
2022/02/28 01:23:00;;;;;;;17.07;8.27;;;;;;;;;;4447872;32;20231;-58
2022/02/28 01:25:26;;;;;;;14.43;4.47;;;;;;;;;;4447690;32;20315;-58
2022/02/28 01:27:51;;;;;;;4.63;3.40;;;;;;;;;;4446506;32;20247;-57
2022/02/28 01:30:17;;;;;;;3.53;2.53;;;;;;;;;;4443379;32;20343;-57
2022/02/28 01:32:42;;;;;;;3.43;2.77;;;;;;;;;;4447544;32;20252;-57
2022/02/28 01:35:10;;;;;;;2.30;2.10;;;;;;;;;;4445298;32;20232;-58
2022/02/28 01:37:36;;;;;;;1.90;1.53;;;;;;;;;;4447447;32;20747;-57
2022/02/28 01:40:03;;;;;;;4.37;2.77;;;;;;;;;;4447732;32;20324;-57
2022/02/28 01:42:29;;;;;;;6.40;3.27;;;;;;;;;;4446186;32;20705;-58
2022/02/28 01:44:54;;;;;;;2.93;2.10;;;;;;;;;;4447683;32;20243;-58
2022/02/28 01:47:20;;;;;;;2.77;2.33;;;;;;;;;;4446133;32;20262;-57
2022/02/28 01:49:45;;;;;;;2.33;1.93;;;;;;;;;;4447172;32;20419;-57
2022/02/28 01:52:11;;;;;;;6.00;2.03;;;;;;;;;;4447441;32;20284;-57
2022/02/28 01:54:36;;;;;;;4.03;2.13;;;;;;;;;;4447749;32;20239;-58
2022/02/28 01:57:02;;;;;;;7.90;3.83;;;;;;;;;;4447258;32;20209;-58
2022/02/28 01:59:28;;;;;;;3.73;2.50;;;;;;;;;;4447187;32;20330;-58
2022/02/28 02:01:53;;;;;;;2.80;2.13;;;;;;;;;;4445941;32;20608;-57
2022/02/28 02:04:19;;;;;;;2.30;2.10;;;;;;;;;;4447557;32;20637;-57
2022/02/28 02:06:45;;;;;;;3.30;2.27;;;;;;;;;;4445718;32;20283;-57
2022/02/28 02:09:12;;;;;;;3.60;2.40;;;;;;;;;;4446119;32;20791;-58
2022/02/28 02:11:39;;;;;;;4.03;2.80;;;;;;;;;;4446832;32;20551;-58
2022/02/28 02:14:07;;;;;;;4.90;3.20;;;;;;;;;;4446059;32;20312;-59
2022/02/28 02:16:33;;;;;;;4.13;3.53;;;;;;;;;;4446558;32;20538;-57
2022/02/28 02:18:58;;;;;;;2.67;2.47;;;;;;;;;;4446835;32;20830;-58
2022/02/28 02:21:24;;;;;;;3.87;2.70;;;;;;;;;;4432826;32;20236;-58
2022/02/28 02:23:49;;;;;;;6.43;4.53;;;;;;;;;;4462804;32;20350;-59
2022/02/28 02:26:15;;;;;;;2.90;2.17;;;;;;;;;;4462521;32;20374;-58
2022/02/28 02:28:41;;;;;;;4.63;2.70;;;;;;;;;;4462591;32;20291;-57
2022/02/28 02:31:07;;;;;;;3.40;2.10;;;;;;;;;;4453199;32;20670;-58
2022/02/28 02:33:33;;;;;;;2.37;2.17;;;;;;;;;;4445462;32;20232;-57
2022/02/28 02:36:00;;;;;;;3.93;2.47;;;;;;;;;;4446254;32;20297;-58
2022/02/28 02:38:27;;;;;;;3.27;1.90;;;;;;;;;;4446489;32;20310;-58
2022/02/28 02:40:53;;;;;;;3.60;2.80;;;;;;;;;;4447171;32;20637;-58
2022/02/28 02:43:19;;;;;;;4.87;3.43;;;;;;;;;;4446661;32;20297;-58
2022/02/28 02:45:45;;;;;;;2.67;2.40;;;;;;;;;;4446873;32;20290;-58
2022/02/28 02:48:13;;;;;;;2.53;2.07;;;;;;;;;;4446308;32;20264;-57
2022/02/28 02:50:38;;;;;;;3.27;2.20;;;;;;;;;;4446546;32;20767;-58
2022/02/28 02:53:04;;;;;;;6.53;2.80;;;;;;;;;;4446692;32;20228;-58
2022/02/28 02:55:29;;;;;;;2.70;2.50;;;;;;;;;;4445416;32;20779;-58
2022/02/28 02:57:55;;;;;;;3.17;1.70;;;;;;;;;;4446572;32;20626;-57
2022/02/28 03:00:20;;;;;;;1.97;1.83;;;;;;;;;;4446625;32;20279;-57
2022/02/28 03:02:46;;;;;;;2.07;1.53;;;;;;;;;;4446121;32;20419;-57
2022/02/28 03:05:11;;;;;;;2.30;1.80;;;;;;;;;;4446549;32;20271;-58
2022/02/28 03:07:37;;;;;;;2.00;1.73;;;;;;;;;;4446246;32;20209;-58
2022/02/28 03:10:03;;;;;;;1.93;1.73;;;;;;;;;;4446501;32;20664;-58
2022/02/28 03:12:29;;;;;;;2.30;1.70;;;;;;;;;;4445880;32;20272;-57
2022/02/28 03:14:54;;;;;;;1.60;1.50;;;;;;;;;;4446359;32;20685;-58
2022/02/28 03:17:20;;;;;;;2.73;1.63;;;;;;;;;;4444804;32;20282;-57
2022/02/28 03:19:45;;;;;;;1.70;1.60;;;;;;;;;;4445805;32;20750;-57
2022/02/28 03:22:10;;;;;;;2.67;2.40;;;;;;;;;;4446080;32;20248;-57
2022/02/28 03:24:36;;;;;;;2.53;1.90;;;;;;;;;;4444891;32;20538;-58
2022/02/28 03:27:02;;;;;;;3.27;1.77;;;;;;;;;;4446220;32;20269;-57
2022/02/28 03:29:27;;;;;;;3.30;2.00;;;;;;;;;;4444862;32;20323;-57
2022/02/28 03:31:54;;;;;;;3.53;2.50;;;;;;;;;;4445812;32;20220;-57
2022/02/28 03:34:19;;;;;;;4.57;2.07;;;;;;;;;;4444746;32;20335;-58
2022/02/28 03:36:45;;;;;;;1.70;1.60;;;;;;;;;;4436444;32;20247;-58
2022/02/28 03:39:11;;;;;;;3.03;2.00;;;;;;;;;;4444880;32;20372;-57
2022/02/28 03:41:36;;;;;;;3.43;2.50;;;;;;;;;;4445741;32;20367;-58
2022/02/28 03:44:02;;;;;;;3.43;2.20;;;;;;;;;;4445896;32;20310;-57
2022/02/28 03:46:27;;;;;;;2.33;2.13;;;;;;;;;;4445687;32;20300;-57
2022/02/28 03:48:53;;;;;;;2.33;1.80;;;;;;;;;;4444778;32;20300;-59
2022/02/28 03:51:19;;;;;;;4.10;2.47;;;;;;;;;;4446318;32;20297;-59
2022/02/28 03:53:44;;;;;;;5.60;2.70;;;;;;;;;;4445953;32;20720;-60
2022/02/28 03:56:09;;;;;;;2.70;2.20;;;;;;;;;;4446382;32;20233;-58
2022/02/28 03:58:38;;;;;;;2.53;2.13;;;;;;;;;;4444694;32;20349;-58
2022/02/28 04:01:04;;;;;;;3.73;2.60;;;;;;;;;;4446214;32;20283;-58
2022/02/28 04:03:30;;;;;;;6.77;3.33;;;;;;;;;;4445868;32;20267;-58
2022/02/28 04:05:55;;;;;;;6.17;3.07;;;;;;;;;;4445851;32;20585;-57
2022/02/28 04:08:21;;;;;;;2.70;2.23;;;;;;;;;;4444489;32;20687;-57
2022/02/28 04:10:46;;;;;;;6.33;2.70;;;;;;;;;;4445607;32;20259;-58
2022/02/28 04:13:11;;;;;;;3.13;2.50;;;;;;;;;;4445819;32;20269;-58
2022/02/28 04:15:37;;;;;;;5.07;2.70;;;;;;;;;;4445813;32;20253;-57
2022/02/28 04:18:03;;;;;;;4.73;3.47;;;;;;;;;;4445591;32;20300;-58
2022/02/28 04:20:28;;;;;;;4.23;3.17;;;;;;;;;;4445841;32;20271;-58
2022/02/28 04:22:54;;;;;;;6.50;3.20;;;;;;;;;;4431872;32;20565;-57
2022/02/28 04:25:19;;;;;;;5.53;3.10;;;;;;;;;;4444731;32;20308;-57
2022/02/28 04:27:45;;;;;;;4.93;2.63;;;;;;;;;;4445756;32;20459;-58
2022/02/28 04:30:11;;;;;;;3.43;1.67;;;;;;;;;;4445822;32;20228;-58
2022/02/28 04:32:36;;;;;;;2.27;1.77;;;;;;;;;;4445429;32;20703;-58
2022/02/28 04:35:02;;;;;;;2.67;2.30;;;;;;;;;;4445368;32;20277;-58
2022/02/28 04:37:28;;;;;;;3.30;2.43;;;;;;;;;;4445240;32;20269;-57
2022/02/28 04:39:53;;;;;;;2.10;1.90;;;;;;;;;;4445759;32;20256;-57
2022/02/28 04:42:19;;;;;;;2.00;1.80;;;;;;;;;;4445546;32;20274;-58
2022/02/28 04:44:45;;;;;;;2.80;2.50;;;;;;;;;;4445538;32;20438;-57
2022/02/28 04:47:10;;;;;;;1.93;1.70;;;;;;;;;;4445562;32;20414;-57
2022/02/28 04:49:36;;;;;;;3.00;2.13;;;;;;;;;;4445658;32;20274;-59
2022/02/28 04:52:01;;;;;;;6.70;2.90;;;;;;;;;;4445479;32;20201;-57
2022/02/28 04:54:27;;;;;;;3.07;2.20;;;;;;;;;;4445626;32;20272;-58
2022/02/28 04:56:52;;;;;;;4.70;2.07;;;;;;;;;;4445575;32;20276;-57
2022/02/28 04:59:18;;;;;;;12.03;3.73;;;;;;;;;;4447167;32;20299;-58
2022/02/28 05:01:43;;;;;;;14.47;5.60;;;;;;;;;;4448041;32;20572;-57
2022/02/28 05:04:09;;;;;;;7.73;3.80;;;;;;;;;;4448216;32;20322;-57
2022/02/28 05:06:34;;;;;;;16.30;5.97;;;;;;;;;;4447656;32;20957;-58
2022/02/28 05:09:00;;;;;;;12.70;4.83;;;;;;;;;;4446945;32;20327;-58
2022/02/28 05:11:26;;;;;;;16.80;5.00;;;;;;;;;;4447927;32;20626;-56
2022/02/28 05:13:51;;;;;;;7.60;4.10;;;;;;;;;;4446965;32;20814;-57
2022/02/28 05:16:17;;;;;;;6.90;4.50;;;;;;;;;;4447970;32;20353;-58
2022/02/28 05:18:42;;;;;;;4.77;3.43;;;;;;;;;;4447754;32;20326;-57
2022/02/28 05:21:08;;;;;;;54.40;24.17;;;;;;;;;;4448375;32;20236;-57
2022/02/28 05:23:33;;;;;;;54.37;24.70;;;;;;;;;;4448102;32;20220;-58
2022/02/28 05:25:59;;;;;;;27.53;14.47;;;;;;;;;;4448056;32;20303;-57
2022/02/28 05:28:24;;;;;;;8.03;5.80;;;;;;;;;;4447985;32;20585;-57
2022/02/28 05:30:51;;;;;;;6.70;5.60;;;;;;;;;;4447422;32;20294;-58
2022/02/28 05:33:19;;;;;;;11.33;5.23;;;;;;;;;;4447585;32;20294;-58
2022/02/28 05:35:44;;;;;;;7.60;5.17;;;;;;;;;;4443499;32;20627;-57
2022/02/28 05:38:10;;;;;;;12.77;6.27;;;;;;;;;;4444662;32;20270;-57
2022/02/28 05:40:37;;;;;;;10.03;5.20;;;;;;;;;;4447404;32;20412;-60
2022/02/28 05:43:03;;;;;;;10.17;6.40;;;;;;;;;;4447318;32;20307;-56
2022/02/28 05:45:28;;;;;;;5.20;3.57;;;;;;;;;;4447145;32;20593;-56
2022/02/28 05:47:54;;;;;;;10.17;6.67;;;;;;;;;;4445819;32;20298;-58
2022/02/28 05:50:19;;;;;;;7.03;3.83;;;;;;;;;;4445966;32;20257;-57
2022/02/28 05:52:49;;;;;;;8.17;4.73;;;;;;;;;;4444254;32;20244;-57
2022/02/28 05:55:14;;;;;;;12.43;8.87;;;;;;;;;;4445495;32;20260;-57
2022/02/28 05:57:40;;;;;;;4.50;3.87;;;;;;;;;;4443558;32;20591;-58
2022/02/28 06:00:07;;;;;;;5.50;3.67;;;;;;;;;;4443201;32;20410;-57
2022/02/28 06:02:33;;;;;;;5.73;3.50;;;;;;;;;;4443562;32;20285;-58
2022/02/28 06:04:59;;;;;;;7.23;3.77;;;;;;;;;;4445813;32;20279;-56
2022/02/28 06:07:25;;;;;;;11.10;4.53;;;;;;;;;;4445345;32;20239;-56
2022/02/28 06:09:50;;;;;;;7.57;4.07;;;;;;;;;;4444965;32;20274;-57
2022/02/28 06:12:15;;;;;;;4.73;3.67;;;;;;;;;;4446495;32;20311;-57
2022/02/28 06:14:41;;;;;;;6.40;4.00;;;;;;;;;;4446509;32;20656;-57
2022/02/28 06:17:06;;;;;;;8.10;6.80;;;;;;;;;;4445088;32;20347;-57
2022/02/28 06:19:32;;;;;;;3.87;3.23;;;;;;;;;;4433941;32;20781;-57
2022/02/28 06:21:58;;;;;;;3.77;3.27;;;;;;;;;;4461695;32;20240;-58
2022/02/28 06:24:25;;;;;;;11.63;5.73;;;;;;;;;;4461628;32;20727;-57
2022/02/28 06:26:51;;;;;;;6.73;3.80;;;;;;;;;;4460739;32;20319;-57
2022/02/28 06:29:17;;;;;;;5.10;3.90;;;;;;;;;;4446450;32;20386;-57
2022/02/28 06:31:44;;;;;;;8.93;3.70;;;;;;;;;;4447518;32;20241;-58
2022/02/28 06:34:10;;;;;;;3.30;3.00;;;;;;;;;;4445316;32;20589;-56
2022/02/28 06:36:36;;;;;;;7.07;4.17;;;;;;;;;;4444866;32;20445;-57
2022/02/28 06:39:03;;;;;;;5.37;3.13;;;;;;;;;;4447384;32;20310;-57
2022/02/28 06:41:29;;;;;;;5.07;3.27;;;;;;;;;;4445880;32;20719;-59
2022/02/28 06:43:54;;;;;;;7.53;3.90;;;;;;;;;;4446713;32;20291;-57
2022/02/28 06:46:20;;;;;;;7.03;5.17;;;;;;;;;;4443478;32;20270;-57
2022/02/28 06:48:46;;;;;;;6.83;3.97;;;;;;;;;;4430768;32;20719;-56
2022/02/28 06:51:11;;;;;;;6.93;3.67;;;;;;;;;;4431487;32;20684;-57
2022/02/28 06:53:37;;;;;;;9.47;5.77;;;;;;;;;;4431777;32;20363;-57
2022/02/28 06:56:02;;;;;;;8.20;4.63;;;;;;;;;;4430947;32;20255;-57
2022/02/28 06:58:28;;;;;;;5.97;3.63;;;;;;;;;;4429756;32;21062;-56
2022/02/28 07:00:54;;;;;;;5.10;3.23;;;;;;;;;;4429606;32;20269;-56
2022/02/28 07:03:21;;;;;;;6.13;3.60;;;;;;;;;;4440111;32;20220;-56
2022/02/28 07:05:49;;;;;;;5.03;3.23;;;;;;;;;;4442444;32;20358;-56
2022/02/28 07:08:16;;;;;;;2.47;2.10;;;;;;;;;;4446159;32;20200;-56
2022/02/28 07:10:43;;;;;;;4.67;3.47;;;;;;;;;;4446861;32;20229;-56
2022/02/28 07:13:09;;;;;;;5.50;3.30;;;;;;;;;;4444872;32;20841;-56
2022/02/28 07:15:35;;;;;;;12.03;3.07;;;;;;;;;;4446485;32;20526;-57
2022/02/28 07:18:00;;;;;;;5.97;4.40;;;;;;;;;;4445946;32;20458;-57
2022/02/28 07:20:26;;;;;;;9.57;4.77;;;;;;;;;;4444705;32;20261;-56
2022/02/28 07:22:52;;;;;;;5.13;4.23;;;;;;;;;;4429622;32;20371;-57
2022/02/28 07:25:17;;;;;;;9.40;4.07;;;;;;;;;;4431344;32;20702;-56
2022/02/28 07:27:42;;;;;;;6.57;3.10;;;;;;;;;;4431039;32;20221;-57
2022/02/28 07:30:08;;;;;;;4.33;3.23;;;;;;;;;;4430965;32;20229;-57
2022/02/28 07:32:34;;;;;;;6.70;3.93;;;;;;;;;;4430911;32;20213;-57
2022/02/28 07:34:59;;;;;;;6.57;3.13;;;;;;;;;;4443026;32;20263;-57
2022/02/28 07:37:25;;;;;;;5.50;4.03;;;;;;;;;;4439600;32;20370;-56
2022/02/28 07:39:50;;;;;;;11.97;4.33;;;;;;;;;;4446654;32;20274;-56
2022/02/28 07:42:16;;;;;;;6.23;3.60;;;;;;;;;;4446261;32;20715;-56
2022/02/28 07:44:41;;;;;;;4.20;3.27;;;;;;;;;;4446258;32;20267;-56
2022/02/28 07:47:07;;;;;;;10.57;4.50;;;;;;;;;;4444925;32;20237;-57
2022/02/28 07:49:35;;;;;;;7.90;4.67;;;;;;;;;;4446008;32;20216;-56
2022/02/28 07:52:02;;;;;;;4.47;3.70;;;;;;;;;;4444520;32;20290;-56
2022/02/28 07:54:27;;;;;;;6.83;4.13;;;;;;;;;;4444553;32;20270;-57
2022/02/28 07:56:53;;;;;;;7.17;4.67;;;;;;;;;;4430579;32;20327;-56
2022/02/28 07:59:18;;;;;;;6.00;4.07;;;;;;;;;;4430731;32;20383;-57
2022/02/28 08:01:43;;;;;;;14.07;7.63;;;;;;;;;;4444427;32;20200;-57
2022/02/28 08:04:09;;;;;;;3.87;2.67;;;;;;;;;;4443643;32;20374;-58
2022/02/28 08:06:34;;;;;;;4.53;2.87;;;;;;;;;;4445296;32;20676;-56
2022/02/28 08:09:00;;;;;;;5.27;3.90;;;;;;;;;;4445673;32;20302;-57
2022/02/28 08:11:25;;;;;;;8.37;4.97;;;;;;;;;;4446088;32;20722;-56
2022/02/28 08:13:51;;;;;;;9.47;5.77;;;;;;;;;;4431844;32;20248;-56
2022/02/28 08:16:16;;;;;;;14.43;9.17;;;;;;;;;;4445812;32;20256;-57
2022/02/28 08:18:42;;;;;;;7.37;4.60;;;;;;;;;;4446049;32;20313;-57
2022/02/28 08:21:07;;;;;;;4.70;3.13;;;;;;;;;;4445920;32;20267;-57
2022/02/28 08:23:33;;;;;;;11.00;7.00;;;;;;;;;;4445740;32;20204;-57
2022/02/28 08:25:59;;;;;;;16.47;8.33;;;;;;;;;;4445895;32;20224;-56
2022/02/28 08:28:24;;;;;;;15.00;7.47;;;;;;;;;;4444728;32;20347;-56
2022/02/28 08:30:50;;;;;;;11.70;6.47;;;;;;;;;;4446481;32;20295;-57
2022/02/28 08:33:16;;;;;;;12.77;6.60;;;;;;;;;;4446353;32;20301;-55
2022/02/28 08:35:41;;;;;;;22.00;9.97;;;;;;;;;;4449398;32;20359;-57
2022/02/28 08:38:07;;;;;;;13.23;7.07;;;;;;;;;;4448901;32;20257;-56
2022/02/28 08:40:32;;;;;;;8.80;4.87;;;;;;;;;;4434882;32;20320;-56
2022/02/28 08:42:58;;;;;;;10.03;5.90;;;;;;;;;;4436752;32;20244;-56
2022/02/28 08:45:23;;;;;;;13.43;9.80;;;;;;;;;;4448655;32;20266;-56
2022/02/28 08:47:49;;;;;;;11.57;5.70;;;;;;;;;;4447330;32;20288;-57
2022/02/28 08:50:17;;;;;;;9.47;5.60;;;;;;;;;;4448559;32;20515;-55
2022/02/28 08:52:43;;;;;;;7.40;5.60;;;;;;;;;;4448427;32;20562;-58
2022/02/28 08:55:09;;;;;;;9.10;5.43;;;;;;;;;;4444489;32;20249;-57
2022/02/28 08:57:36;;;;;;;14.27;7.27;;;;;;;;;;4433232;32;20549;-56
2022/02/28 09:00:06;;;;;;;7.63;4.73;;;;;;;;;;4433113;32;20596;-57
2022/02/28 09:02:31;;;;;;;6.27;3.97;;;;;;;;;;4433292;32;20256;-57
2022/02/28 09:04:57;;;;;;;5.17;3.00;;;;;;;;;;4433886;32;20248;-56
2022/02/28 09:07:22;;;;;;;11.70;6.63;;;;;;;;;;4432176;32;20630;-56
2022/02/28 09:09:48;;;;;;;7.40;4.07;;;;;;;;;;4433213;32;20275;-57
2022/02/28 09:12:14;;;;;;;6.20;3.07;;;;;;;;;;4432793;32;20688;-56
2022/02/28 09:14:40;;;;;;;5.63;3.47;;;;;;;;;;4432322;32;20241;-57
2022/02/28 09:17:06;;;;;;;4.43;3.00;;;;;;;;;;4432297;32;20300;-58
2022/02/28 09:19:31;;;;;;;9.80;5.60;;;;;;;;;;4434373;32;20375;-57
2022/02/28 09:21:57;;;;;;;8.07;4.80;;;;;;;;;;4447868;32;20215;-56
2022/02/28 09:24:23;;;;;;;15.87;5.30;;;;;;;;;;4447344;32;20457;-57
2022/02/28 09:26:48;;;;;;;4.13;2.87;;;;;;;;;;4448287;32;20229;-57
2022/02/28 09:29:14;;;;;;;4.27;2.97;;;;;;;;;;4448195;32;20291;-56
2022/02/28 09:31:39;;;;;;;10.83;5.80;;;;;;;;;;4447387;32;20279;-57
2022/02/28 09:34:05;;;;;;;11.83;5.13;;;;;;;;;;4448199;32;20299;-58
2022/02/28 09:36:30;;;;;;;5.93;3.67;;;;;;;;;;4446541;32;20255;-56
2022/02/28 09:38:57;;;;;;;9.70;4.43;;;;;;;;;;4446992;32;20476;-58
2022/02/28 09:41:23;;;;;;;8.10;4.97;;;;;;;;;;4448119;32;20319;-57
2022/02/28 09:43:50;;;;;;;9.43;4.37;;;;;;;;;;4447556;32;20400;-56
2022/02/28 09:46:17;;;;;;;7.63;5.77;;;;;;;;;;4445940;32;20339;-57
2022/02/28 09:48:45;;;;;;;8.53;6.70;;;;;;;;;;4435262;32;20220;-56
2022/02/28 09:51:11;;;;;;;14.20;8.57;;;;;;;;;;4431075;32;20279;-56
2022/02/28 09:53:36;;;;;;;15.30;10.97;;;;;;;;;;4432693;32;20276;-56
2022/02/28 09:56:02;;;;;;;8.57;4.60;;;;;;;;;;4442896;32;20323;-56
2022/02/28 09:58:29;;;;;;;5.90;3.60;;;;;;;;;;4447098;32;20309;-56
2022/02/28 10:00:56;;;;;;;9.93;6.03;;;;;;;;;;4447864;32;20283;-56
2022/02/28 10:03:26;;;;;;;8.60;3.50;;;;;;;;;;4446452;32;20412;-57
2022/02/28 10:06:02;;;;;;;13.03;7.27;;;;;;;;;;4448177;32;20342;-57
2022/02/28 10:08:45;;;;;;;8.37;5.33;;;;;;;;;;4446640;32;20247;-56
2022/02/28 10:11:34;;;;;;;11.17;7.33;;;;;;;;;;4446741;32;20267;-56
2022/02/28 10:14:05;;;;;;;8.90;5.63;;;;;;;;;;4447740;32;20557;-56
2022/02/28 10:16:57;;;;;;;7.37;4.90;;;;;;;;;;4447302;32;20326;-57
2022/02/28 10:19:24;;;;;;;28.50;9.53;;;;;;;;;;4447508;32;20239;-56
2022/02/28 10:21:53;;;;;;;12.03;6.73;;;;;;;;;;4447524;32;20239;-56
2022/02/28 10:24:28;;;;;;;12.03;4.87;;;;;;;;;;4447551;32;20725;-56
2022/02/28 10:26:57;;;;;;;19.90;10.00;;;;;;;;;;4447771;32;20228;-56
2022/02/28 10:29:27;;;;;;;16.63;9.03;;;;;;;;;;4447012;32;20619;-55
2022/02/28 10:31:59;;;;;;;16.07;6.20;;;;;;;;;;4446213;32;20220;-56
2022/02/28 10:34:26;;;;;;;14.60;7.23;;;;;;;;;;4446157;32;20569;-56
2022/02/28 10:36:58;;;;;;;14.63;6.20;;;;;;;;;;4447141;32;20236;-56
2022/02/28 10:39:30;;;;;;;8.30;5.10;;;;;;;;;;4447150;32;20844;-56
2022/02/28 10:42:11;;;;;;;14.00;6.93;;;;;;;;;;4446929;32;20284;-56
2022/02/28 10:44:37;;;;;;;14.73;5.93;;;;;;;;;;4445662;32;20256;-56
2022/02/28 10:47:08;;;;;;;27.30;9.03;;;;;;;;;;4446869;32;20204;-56
2022/02/28 10:49:35;;;;;;;15.60;8.40;;;;;;;;;;4446853;32;20279;-57
2022/02/28 10:52:07;;;;;;;14.43;7.97;;;;;;;;;;4446982;32;20192;-56
2022/02/28 10:54:40;;;;;;;10.67;6.67;;;;;;;;;;4445792;32;20292;-55
2022/02/28 10:57:20;;;;;;;10.80;5.70;;;;;;;;;;4430904;32;20273;-56
2022/02/28 10:59:49;;;;;;;18.23;10.57;;;;;;;;;;4431539;32;20297;-57
2022/02/28 11:02:31;;;;;;;14.67;7.93;;;;;;;;;;4431631;32;20200;-56
2022/02/28 11:05:12;;;;;;;10.93;6.33;;;;;;;;;;4431652;32;20578;-57
2022/02/28 11:07:47;;;;;;;17.10;7.63;;;;;;;;;;4431274;32;20245;-57
2022/02/28 11:10:14;;;;;;;19.50;9.10;;;;;;;;;;4431302;32;20796;-56
2022/02/28 11:12:40;;;;;;;15.97;9.13;;;;;;;;;;4431181;32;20355;-56
2022/02/28 11:15:08;;;;;;;32.90;9.67;;;;;;;;;;4431681;32;20319;-56
2022/02/28 11:17:37;;;;;;;22.00;10.83;;;;;;;;;;4431718;32;20244;-57
2022/02/28 11:20:08;;;;;;;11.20;5.50;;;;;;;;;;4444235;32;20299;-56
2022/02/28 11:22:35;;;;;;;11.70;6.00;;;;;;;;;;4445128;32;20276;-58
2022/02/28 11:25:01;;;;;;;10.93;6.43;;;;;;;;;;4444354;32;20252;-56
2022/02/28 11:27:29;;;;;;;13.53;6.07;;;;;;;;;;4443692;32;20240;-57
2022/02/28 11:30:03;;;;;;;9.40;5.67;;;;;;;;;;4441842;32;20232;-57
2022/02/28 11:32:29;;;;;;;26.93;13.30;;;;;;;;;;4443764;32;20632;-57
2022/02/28 11:35:33;;;;;;;11.57;6.70;;;;;;;;;;4443769;32;20316;-56
2022/02/28 11:37:58;;;;;;;18.03;8.83;;;;;;;;;;4443280;32;20272;-57
2022/02/28 11:40:30;;;;;;;12.60;6.60;;;;;;;;;;4437459;32;20278;-58
2022/02/28 11:43:12;;;;;;;16.00;7.57;;;;;;;;;;4439270;32;20379;-57
2022/02/28 11:45:57;;;;;;;19.17;9.30;;;;;;;;;;4445092;32;20414;-57
2022/02/28 11:48:41;;;;;;;5.93;4.20;;;;;;;;;;4445956;32;20272;-57
2022/02/28 11:51:20;;;;;;;12.10;5.90;;;;;;;;;;4446260;32;20301;-56
2022/02/28 11:53:51;;;;;;;18.20;9.03;;;;;;;;;;4444970;32;20345;-57
2022/02/28 11:56:16;;;;;;;15.93;7.80;;;;;;;;;;4439874;32;20776;-57
2022/02/28 11:58:51;;;;;;;7.53;5.03;;;;;;;;;;4428364;32;20305;-56
2022/02/28 12:01:18;;;;;;;6.73;5.07;;;;;;;;;;4430743;32;20323;-57
2022/02/28 12:04:11;;;;;;;7.30;5.00;;;;;;;;;;4430053;32;20232;-57
2022/02/28 12:06:59;;;;;;;11.50;7.00;;;;;;;;;;4431427;32;20977;-56
2022/02/28 12:09:33;;;;;;;12.47;8.83;;;;;;;;;;4434293;32;20685;-57
2022/02/28 12:12:31;;;;;;;19.73;8.03;;;;;;;;;;4432840;32;20356;-57
2022/02/28 12:14:57;;;;;;;10.10;5.47;;;;;;;;;;4433281;32;20220;-57
2022/02/28 12:17:35;;;;;;;15.63;8.70;;;;;;;;;;4433414;32;20783;-57
2022/02/28 12:20:29;;;;;;;13.27;8.43;;;;;;;;;;4439573;32;20236;-56
2022/02/28 12:23:05;;;;;;;11.07;5.90;;;;;;;;;;4447390;32;20263;-57
2022/02/28 12:25:43;;;;;;;12.53;6.40;;;;;;;;;;4448294;32;20276;-56
2022/02/28 12:28:26;;;;;;;17.73;9.00;;;;;;;;;;4446439;32;20236;-57
2022/02/28 12:30:59;;;;;;;20.83;8.93;;;;;;;;;;4446208;32;20554;-57
2022/02/28 12:33:34;;;;;;;33.57;16.13;;;;;;;;;;4446375;32;20625;-56
2022/02/28 12:36:02;;;;;;;24.10;9.50;;;;;;;;;;4447462;32;20268;-56
2022/02/28 12:38:34;;;;;;;14.33;8.03;;;;;;;;;;4447268;32;20539;-57
2022/02/28 12:41:03;;;;;;;10.13;6.63;;;;;;;;;;4449717;32;20233;-58
2022/02/28 12:43:30;;;;;;;13.53;7.23;;;;;;;;;;4448271;32;20756;-57
2022/02/28 12:45:58;;;;;;;12.90;7.40;;;;;;;;;;4449200;32;20743;-57
2022/02/28 12:48:25;;;;;;;14.33;7.17;;;;;;;;;;4448244;32;20248;-57
2022/02/28 12:50:56;;;;;;;19.73;10.07;;;;;;;;;;4448973;32;20340;-57
2022/02/28 12:53:24;;;;;;;22.03;11.77;;;;;;;;;;4447891;32;20264;-57
2022/02/28 12:56:00;;;;;;;12.10;7.43;;;;;;;;;;4448992;32;20266;-57
2022/02/28 12:58:27;;;;;;;14.17;7.67;;;;;;;;;;4449158;32;20291;-58
2022/02/28 13:01:05;;;;;;;22.87;10.87;;;;;;;;;;4447732;32;20244;-57
2022/02/28 13:03:37;;;;;;;13.03;7.67;;;;;;;;;;4449276;32;20224;-57
2022/02/28 13:06:02;;;;;;;16.90;7.10;;;;;;;;;;4448125;32;20708;-58
2022/02/28 13:08:28;;;;;;;17.27;8.37;;;;;;;;;;4449229;32;20245;-56
2022/02/28 13:11:18;;;;;;;14.87;6.83;;;;;;;;;;4435279;32;20308;-57
2022/02/28 13:13:51;;;;;;;7.93;4.77;;;;;;;;;;4446271;32;20260;-57
2022/02/28 13:16:17;;;;;;;19.30;8.97;;;;;;;;;;4449138;32;20384;-59
2022/02/28 13:18:43;;;;;;;6.67;4.60;;;;;;;;;;4449131;32;20318;-58
2022/02/28 13:21:08;;;;;;;7.37;3.87;;;;;;;;;;4448661;32;20591;-58
2022/02/28 13:23:35;;;;;;;10.27;5.80;;;;;;;;;;4447829;32;20365;-57
2022/02/28 13:26:02;;;;;;;6.20;3.33;;;;;;;;;;4448932;32;20232;-57
2022/02/28 13:28:39;;;;;;;8.73;4.30;;;;;;;;;;4449002;32;20757;-57
2022/02/28 13:31:06;;;;;;;8.27;4.40;;;;;;;;;;4447714;32;20560;-58
2022/02/28 13:33:33;;;;;;;5.07;3.83;;;;;;;;;;4447453;32;20507;-57
2022/02/28 13:35:59;;;;;;;4.50;3.60;;;;;;;;;;4448024;32;20338;-58
2022/02/28 13:38:26;;;;;;;12.73;6.97;;;;;;;;;;4448639;32;20273;-57
2022/02/28 13:40:52;;;;;;;10.07;6.77;;;;;;;;;;4449022;32;20299;-57
2022/02/28 13:43:18;;;;;;;8.50;4.33;;;;;;;;;;4448288;32;20734;-58
2022/02/28 13:45:47;;;;;;;6.37;4.03;;;;;;;;;;4448497;32;20261;-58
2022/02/28 13:48:21;;;;;;;14.17;6.10;;;;;;;;;;4448678;32;20665;-57
2022/02/28 13:50:49;;;;;;;9.87;4.73;;;;;;;;;;4448749;32;20319;-57
2022/02/28 13:53:15;;;;;;;8.67;4.00;;;;;;;;;;4447117;32;20378;-57
2022/02/28 13:55:45;;;;;;;7.40;3.17;;;;;;;;;;4439827;32;20266;-56
2022/02/28 13:58:12;;;;;;;14.10;7.83;;;;;;;;;;4431404;32;20243;-57
2022/02/28 14:00:58;;;;;;;20.67;10.57;;;;;;;;;;4433118;32;20567;-58
2022/02/28 14:03:27;;;;;;;58.77;23.63;;;;;;;;;;4432744;32;20804;-57
2022/02/28 14:05:54;;;;;;;27.27;12.77;;;;;;;;;;4432932;32;20284;-57
2022/02/28 14:08:21;;;;;;;14.40;7.97;;;;;;;;;;4432529;32;20260;-57
2022/02/28 14:11:04;;;;;;;16.23;8.97;;;;;;;;;;4431207;32;20426;-57
2022/02/28 14:13:39;;;;;;;48.27;20.13;;;;;;;;;;4430913;32;20228;-57
2022/02/28 14:16:22;;;;;;;78.77;27.67;;;;;;;;;;4429524;32;20294;-56
2022/02/28 14:19:05;;;;;;;32.43;14.23;;;;;;;;;;4431502;32;20240;-57
2022/02/28 14:21:41;;;;;;;19.73;9.83;;;;;;;;;;4431511;32;20304;-57
2022/02/28 14:24:12;;;;;;;50.43;22.00;;;;;;;;;;4432888;32;20219;-57
2022/02/28 14:26:40;;;;;;;17.87;9.40;;;;;;;;;;4431503;32;20580;-57
2022/02/28 14:29:10;;;;;;;38.00;17.07;;;;;;;;;;4439011;32;20680;-57
2022/02/28 14:31:47;;;;;;;36.70;15.50;;;;;;;;;;4446152;32;20631;-57
2022/02/28 14:34:14;;;;;;;17.33;8.70;;;;;;;;;;4448464;32;20245;-57
2022/02/28 14:36:40;;;;;;;27.57;8.20;;;;;;;;;;4447791;32;20686;-57
2022/02/28 14:39:07;;;;;;;33.57;13.50;;;;;;;;;;4442216;32;20351;-57
2022/02/28 14:41:34;;;;;;;12.07;7.37;;;;;;;;;;4441615;32;20267;-58